sensor_id;sensor_type;location;lat;lon;timestamp;temperature;humidity
67862;DHT22;54665;51.462;6.698;2023-04-29T00:00:05;11.70;86.51
67862;DHT22;54665;51.462;6.698;2023-04-29T00:02:36;11.80;86.37
67862;DHT22;54665;51.462;6.698;2023-04-29T00:05:02;11.84;86.16
67862;DHT22;54665;51.462;6.698;2023-04-29T00:07:30;11.89;86.52
67862;DHT22;54665;51.462;6.698;2023-04-29T00:09:57;11.91;86.31
67862;DHT22;54665;51.462;6.698;2023-04-29T00:12:22;11.71;86.45
67862;DHT22;54665;51.462;6.698;2023-04-29T00:14:48;11.80;86.49
67862;DHT22;54665;51.462;6.698;2023-04-29T00:17:13;11.80;86.52
67862;DHT22;54665;51.462;6.698;2023-04-29T00:19:39;11.71;86.20
67862;DHT22;54665;51.462;6.698;2023-04-29T00:22:04;11.79;86.94
67862;DHT22;54665;51.462;6.698;2023-04-29T00:24:30;11.62;86.57
67862;DHT22;54665;51.462;6.698;2023-04-29T00:26:55;11.69;86.74
67862;DHT22;54665;51.462;6.698;2023-04-29T00:29:20;11.84;86.11
67862;DHT22;54665;51.462;6.698;2023-04-29T00:31:48;11.65;86.16
67862;DHT22;54665;51.462;6.698;2023-04-29T00:34:13;11.77;86.48
67862;DHT22;54665;51.462;6.698;2023-04-29T00:36:38;11.59;86.89
67862;DHT22;54665;51.462;6.698;2023-04-29T00:39:04;11.49;87.04
67862;DHT22;54665;51.462;6.698;2023-04-29T00:41:29;11.39;87.34
67862;DHT22;54665;51.462;6.698;2023-04-29T00:43:56;11.52;87.01
67862;DHT22;54665;51.462;6.698;2023-04-29T00:46:21;11.26;87.46
67862;DHT22;54665;51.462;6.698;2023-04-29T00:48:48;11.55;86.97
67862;DHT22;54665;51.462;6.698;2023-04-29T00:51:14;11.38;86.93
67862;DHT22;54665;51.462;6.698;2023-04-29T00:53:41;11.46;86.90
67862;DHT22;54665;51.462;6.698;2023-04-29T00:56:07;11.56;86.31
67862;DHT22;54665;51.462;6.698;2023-04-29T00:58:33;11.18;86.41
67862;DHT22;54665;51.462;6.698;2023-04-29T01:01:02;11.39;86.78
67862;DHT22;54665;51.462;6.698;2023-04-29T01:03:31;11.49;86.24
67862;DHT22;54665;51.462;6.698;2023-04-29T01:06:36;11.46;86.49
67862;DHT22;54665;51.462;6.698;2023-04-29T01:11:34;11.40;86.35
67862;DHT22;54665;51.462;6.698;2023-04-29T01:14:04;11.25;86.88
67862;DHT22;54665;51.462;6.698;2023-04-29T01:16:47;11.32;86.23
67862;DHT22;54665;51.462;6.698;2023-04-29T01:19:26;11.29;86.51
67862;DHT22;54665;51.462;6.698;2023-04-29T01:21:56;11.22;86.63
67862;DHT22;54665;51.462;6.698;2023-04-29T01:24:22;11.07;87.08
67862;DHT22;54665;51.462;6.698;2023-04-29T01:26:52;11.01;87.31
67862;DHT22;54665;51.462;6.698;2023-04-29T01:29:44;11.09;87.77
67862;DHT22;54665;51.462;6.698;2023-04-29T01:32:17;11.22;87.22
67862;DHT22;54665;51.462;6.698;2023-04-29T01:34:49;11.09;87.87
67862;DHT22;54665;51.462;6.698;2023-04-29T01:37:38;10.85;88.31
67862;DHT22;54665;51.462;6.698;2023-04-29T01:40:23;10.71;88.84
67862;DHT22;54665;51.462;6.698;2023-04-29T01:43:04;10.71;88.98
67862;DHT22;54665;51.462;6.698;2023-04-29T01:45:33;11.02;88.36
67862;DHT22;54665;51.462;6.698;2023-04-29T01:48:01;10.98;88.03
67862;DHT22;54665;51.462;6.698;2023-04-29T01:50:29;11.08;88.17
67862;DHT22;54665;51.462;6.698;2023-04-29T01:53:02;10.95;88.03
67862;DHT22;54665;51.462;6.698;2023-04-29T01:55:28;10.81;88.60
67862;DHT22;54665;51.462;6.698;2023-04-29T01:58:12;10.81;88.42
67862;DHT22;54665;51.462;6.698;2023-04-29T02:00:48;10.91;88.46
67862;DHT22;54665;51.462;6.698;2023-04-29T02:03:14;10.89;88.20
67862;DHT22;54665;51.462;6.698;2023-04-29T02:05:44;10.88;88.02
67862;DHT22;54665;51.462;6.698;2023-04-29T02:08:11;10.95;87.50
67862;DHT22;54665;51.462;6.698;2023-04-29T02:10:40;10.88;87.38
67862;DHT22;54665;51.462;6.698;2023-04-29T02:13:16;10.97;87.12
67862;DHT22;54665;51.462;6.698;2023-04-29T02:15:42;10.77;87.19
67862;DHT22;54665;51.462;6.698;2023-04-29T02:18:08;10.78;87.04
67862;DHT22;54665;51.462;6.698;2023-04-29T02:20:33;10.79;87.07
67862;DHT22;54665;51.462;6.698;2023-04-29T02:22:58;10.95;86.89
67862;DHT22;54665;51.462;6.698;2023-04-29T02:25:24;10.87;86.81
67862;DHT22;54665;51.462;6.698;2023-04-29T02:27:49;10.91;86.49
67862;DHT22;54665;51.462;6.698;2023-04-29T02:30:15;10.78;86.57
67862;DHT22;54665;51.462;6.698;2023-04-29T02:32:41;10.77;86.81
67862;DHT22;54665;51.462;6.698;2023-04-29T02:35:07;10.74;86.63
67862;DHT22;54665;51.462;6.698;2023-04-29T02:37:33;10.74;86.61
67862;DHT22;54665;51.462;6.698;2023-04-29T02:39:58;10.78;86.74
67862;DHT22;54665;51.462;6.698;2023-04-29T02:42:24;10.84;86.49
67862;DHT22;54665;51.462;6.698;2023-04-29T02:44:49;10.78;86.35
67862;DHT22;54665;51.462;6.698;2023-04-29T02:47:14;10.82;86.68
67862;DHT22;54665;51.462;6.698;2023-04-29T02:49:40;10.87;86.47
67862;DHT22;54665;51.462;6.698;2023-04-29T02:52:05;10.91;85.99
67862;DHT22;54665;51.462;6.698;2023-04-29T02:54:32;10.89;86.44
67862;DHT22;54665;51.462;6.698;2023-04-29T02:56:57;10.61;87.15
67862;DHT22;54665;51.462;6.698;2023-04-29T02:59:23;10.69;87.33
67862;DHT22;54665;51.462;6.698;2023-04-29T03:01:48;10.79;86.89
67862;DHT22;54665;51.462;6.698;2023-04-29T03:04:14;10.71;87.46
67862;DHT22;54665;51.462;6.698;2023-04-29T03:06:39;10.74;87.44
67862;DHT22;54665;51.462;6.698;2023-04-29T03:09:06;10.64;87.44
67862;DHT22;54665;51.462;6.698;2023-04-29T03:11:31;10.48;88.30
67862;DHT22;54665;51.462;6.698;2023-04-29T03:13:56;10.60;87.69
67862;DHT22;54665;51.462;6.698;2023-04-29T03:16:22;10.53;87.97
67862;DHT22;54665;51.462;6.698;2023-04-29T03:18:48;10.68;87.68
67862;DHT22;54665;51.462;6.698;2023-04-29T03:21:14;10.75;87.58
67862;DHT22;54665;51.462;6.698;2023-04-29T03:23:39;10.72;87.17
67862;DHT22;54665;51.462;6.698;2023-04-29T03:26:06;10.79;87.40
67862;DHT22;54665;51.462;6.698;2023-04-29T03:28:31;10.51;88.05
67862;DHT22;54665;51.462;6.698;2023-04-29T03:30:57;10.53;88.14
67862;DHT22;54665;51.462;6.698;2023-04-29T03:33:23;10.78;87.45
67862;DHT22;54665;51.462;6.698;2023-04-29T03:35:49;10.75;87.17
67862;DHT22;54665;51.462;6.698;2023-04-29T03:38:33;10.77;87.24
67862;DHT22;54665;51.462;6.698;2023-04-29T03:40:59;10.64;88.04
67862;DHT22;54665;51.462;6.698;2023-04-29T03:43:25;10.71;87.95
67862;DHT22;54665;51.462;6.698;2023-04-29T03:45:50;10.56;87.82
67862;DHT22;54665;51.462;6.698;2023-04-29T03:48:18;10.56;88.10
67862;DHT22;54665;51.462;6.698;2023-04-29T03:50:45;10.58;88.05
67862;DHT22;54665;51.462;6.698;2023-04-29T03:53:11;10.78;87.22
67862;DHT22;54665;51.462;6.698;2023-04-29T03:55:37;10.65;87.69
67862;DHT22;54665;51.462;6.698;2023-04-29T03:58:03;10.58;87.88
67862;DHT22;54665;51.462;6.698;2023-04-29T04:00:29;10.41;88.27
67862;DHT22;54665;51.462;6.698;2023-04-29T04:02:57;10.41;88.59
67862;DHT22;54665;51.462;6.698;2023-04-29T04:05:23;10.40;87.87
67862;DHT22;54665;51.462;6.698;2023-04-29T04:07:53;10.37;88.05
67862;DHT22;54665;51.462;6.698;2023-04-29T04:10:31;10.67;87.53
67862;DHT22;54665;51.462;6.698;2023-04-29T04:12:59;10.61;87.46
67862;DHT22;54665;51.462;6.698;2023-04-29T04:15:25;10.51;88.11
67862;DHT22;54665;51.462;6.698;2023-04-29T04:17:51;10.46;88.16
67862;DHT22;54665;51.462;6.698;2023-04-29T04:20:18;10.50;87.95
67862;DHT22;54665;51.462;6.698;2023-04-29T04:22:46;10.61;87.51
67862;DHT22;54665;51.462;6.698;2023-04-29T04:25:16;10.74;87.16
67862;DHT22;54665;51.462;6.698;2023-04-29T04:27:42;10.81;87.04
67862;DHT22;54665;51.462;6.698;2023-04-29T04:30:12;10.75;86.77
67862;DHT22;54665;51.462;6.698;2023-04-29T04:32:37;10.58;87.14
67862;DHT22;54665;51.462;6.698;2023-04-29T04:35:05;10.53;87.44
67862;DHT22;54665;51.462;6.698;2023-04-29T04:37:31;10.63;87.13
67862;DHT22;54665;51.462;6.698;2023-04-29T04:39:58;10.61;87.15
67862;DHT22;54665;51.462;6.698;2023-04-29T04:42:24;10.63;87.06
67862;DHT22;54665;51.462;6.698;2023-04-29T04:44:52;10.58;86.77
67862;DHT22;54665;51.462;6.698;2023-04-29T04:47:39;10.77;86.79
67862;DHT22;54665;51.462;6.698;2023-04-29T04:50:16;10.60;87.04
67862;DHT22;54665;51.462;6.698;2023-04-29T04:52:45;10.65;86.86
67862;DHT22;54665;51.462;6.698;2023-04-29T04:55:27;10.74;86.33
67862;DHT22;54665;51.462;6.698;2023-04-29T04:57:53;10.85;86.32
67862;DHT22;54665;51.462;6.698;2023-04-29T05:00:18;10.77;85.81
67862;DHT22;54665;51.462;6.698;2023-04-29T05:02:44;10.67;86.34
67862;DHT22;54665;51.462;6.698;2023-04-29T05:05:09;10.51;86.70
67862;DHT22;54665;51.462;6.698;2023-04-29T05:07:37;10.65;86.45
67862;DHT22;54665;51.462;6.698;2023-04-29T05:10:04;10.69;85.73
67862;DHT22;54665;51.462;6.698;2023-04-29T05:12:32;10.78;86.13
67862;DHT22;54665;51.462;6.698;2023-04-29T05:15:00;10.75;85.78
67862;DHT22;54665;51.462;6.698;2023-04-29T05:17:28;10.81;86.05
67862;DHT22;54665;51.462;6.698;2023-04-29T05:19:54;10.77;85.51
67862;DHT22;54665;51.462;6.698;2023-04-29T05:22:20;10.71;85.54
67862;DHT22;54665;51.462;6.698;2023-04-29T05:24:46;10.78;85.56
67862;DHT22;54665;51.462;6.698;2023-04-29T05:27:14;10.65;85.13
67862;DHT22;54665;51.462;6.698;2023-04-29T05:29:40;10.75;85.34
67862;DHT22;54665;51.462;6.698;2023-04-29T05:32:05;10.61;85.34
67862;DHT22;54665;51.462;6.698;2023-04-29T05:34:31;10.92;84.57
67862;DHT22;54665;51.462;6.698;2023-04-29T05:36:57;11.01;84.51
67862;DHT22;54665;51.462;6.698;2023-04-29T05:39:23;10.82;84.82
67862;DHT22;54665;51.462;6.698;2023-04-29T05:41:57;10.75;84.47
67862;DHT22;54665;51.462;6.698;2023-04-29T05:44:34;10.81;84.80
67862;DHT22;54665;51.462;6.698;2023-04-29T05:46:59;10.85;84.81
67862;DHT22;54665;51.462;6.698;2023-04-29T05:49:25;10.84;84.63
67862;DHT22;54665;51.462;6.698;2023-04-29T05:51:50;11.07;84.20
67862;DHT22;54665;51.462;6.698;2023-04-29T05:54:15;11.14;83.84
67862;DHT22;54665;51.462;6.698;2023-04-29T05:56:41;11.19;83.60
67862;DHT22;54665;51.462;6.698;2023-04-29T05:59:07;11.30;83.28
67862;DHT22;54665;51.462;6.698;2023-04-29T06:01:33;11.22;83.69
67862;DHT22;54665;51.462;6.698;2023-04-29T06:03:59;11.26;83.11
67862;DHT22;54665;51.462;6.698;2023-04-29T06:06:55;11.16;83.78
67862;DHT22;54665;51.462;6.698;2023-04-29T06:09:38;10.95;83.83
67862;DHT22;54665;51.462;6.698;2023-04-29T06:12:04;11.08;83.54
67862;DHT22;54665;51.462;6.698;2023-04-29T06:14:30;11.12;83.21
67862;DHT22;54665;51.462;6.698;2023-04-29T06:16:55;11.11;83.51
67862;DHT22;54665;51.462;6.698;2023-04-29T06:19:22;10.98;83.46
67862;DHT22;54665;51.462;6.698;2023-04-29T06:21:49;11.07;83.40
67862;DHT22;54665;51.462;6.698;2023-04-29T06:24:16;10.95;83.60
67862;DHT22;54665;51.462;6.698;2023-04-29T06:26:41;10.99;83.38
67862;DHT22;54665;51.462;6.698;2023-04-29T06:29:07;11.02;83.31
67862;DHT22;54665;51.462;6.698;2023-04-29T06:31:34;10.87;83.39
67862;DHT22;54665;51.462;6.698;2023-04-29T06:34:02;11.07;83.33
67862;DHT22;54665;51.462;6.698;2023-04-29T06:36:29;11.12;82.97
67862;DHT22;54665;51.462;6.698;2023-04-29T06:39:12;11.16;82.95
67862;DHT22;54665;51.462;6.698;2023-04-29T06:41:47;11.16;82.73
67862;DHT22;54665;51.462;6.698;2023-04-29T06:44:32;11.43;82.73
67862;DHT22;54665;51.462;6.698;2023-04-29T06:47:15;11.29;82.44
67862;DHT22;54665;51.462;6.698;2023-04-29T06:49:46;11.40;82.07
67862;DHT22;54665;51.462;6.698;2023-04-29T06:52:11;11.19;82.86
67862;DHT22;54665;51.462;6.698;2023-04-29T06:54:36;11.36;82.53
67862;DHT22;54665;51.462;6.698;2023-04-29T06:57:02;11.32;81.73
67862;DHT22;54665;51.462;6.698;2023-04-29T06:59:28;11.66;81.83
67862;DHT22;54665;51.462;6.698;2023-04-29T07:01:53;11.47;81.93
67862;DHT22;54665;51.462;6.698;2023-04-29T07:04:19;11.32;82.31
67862;DHT22;54665;51.462;6.698;2023-04-29T07:06:46;11.76;80.53
67862;DHT22;54665;51.462;6.698;2023-04-29T07:09:12;11.84;80.82
67862;DHT22;54665;51.462;6.698;2023-04-29T07:11:40;11.89;80.66
67862;DHT22;54665;51.462;6.698;2023-04-29T07:14:06;11.86;80.39
67862;DHT22;54665;51.462;6.698;2023-04-29T07:16:32;11.90;80.52
67862;DHT22;54665;51.462;6.698;2023-04-29T07:18:58;11.91;80.03
67862;DHT22;54665;51.462;6.698;2023-04-29T07:21:24;11.65;80.10
67862;DHT22;54665;51.462;6.698;2023-04-29T07:23:49;11.66;80.49
67862;DHT22;54665;51.462;6.698;2023-04-29T07:26:16;11.87;80.37
67862;DHT22;54665;51.462;6.698;2023-04-29T07:28:44;11.81;80.86
67862;DHT22;54665;51.462;6.698;2023-04-29T07:31:10;11.84;80.13
67862;DHT22;54665;51.462;6.698;2023-04-29T07:33:36;11.52;80.71
67862;DHT22;54665;51.462;6.698;2023-04-29T07:36:02;11.43;81.46
67862;DHT22;54665;51.462;6.698;2023-04-29T07:38:29;11.40;81.13
67862;DHT22;54665;51.462;6.698;2023-04-29T07:40:56;11.36;81.69
67862;DHT22;54665;51.462;6.698;2023-04-29T07:43:22;11.26;81.64
67862;DHT22;54665;51.462;6.698;2023-04-29T07:45:48;11.22;81.83
67862;DHT22;54665;51.462;6.698;2023-04-29T07:48:14;11.23;82.46
67862;DHT22;54665;51.462;6.698;2023-04-29T07:50:39;11.36;81.32
67862;DHT22;54665;51.462;6.698;2023-04-29T07:53:05;11.40;81.31
67862;DHT22;54665;51.462;6.698;2023-04-29T07:55:31;11.26;81.20
67862;DHT22;54665;51.462;6.698;2023-04-29T07:57:58;11.47;81.17
67862;DHT22;54665;51.462;6.698;2023-04-29T08:00:24;11.35;81.43
67862;DHT22;54665;51.462;6.698;2023-04-29T08:02:53;11.62;80.93
67862;DHT22;54665;51.462;6.698;2023-04-29T08:05:19;11.57;81.00
67862;DHT22;54665;51.462;6.698;2023-04-29T08:07:49;11.43;81.12
67862;DHT22;54665;51.462;6.698;2023-04-29T08:10:17;11.39;80.84
67862;DHT22;54665;51.462;6.698;2023-04-29T08:12:49;11.56;81.02
67862;DHT22;54665;51.462;6.698;2023-04-29T08:15:14;11.52;81.03
67862;DHT22;54665;51.462;6.698;2023-04-29T08:17:40;11.47;81.02
67862;DHT22;54665;51.462;6.698;2023-04-29T08:20:06;11.47;81.38
67862;DHT22;54665;51.462;6.698;2023-04-29T08:22:32;11.35;81.32
67862;DHT22;54665;51.462;6.698;2023-04-29T08:24:58;11.50;81.09
67862;DHT22;54665;51.462;6.698;2023-04-29T08:27:23;11.33;80.87
67862;DHT22;54665;51.462;6.698;2023-04-29T08:29:49;11.47;80.66
67862;DHT22;54665;51.462;6.698;2023-04-29T08:32:14;11.63;80.72
67862;DHT22;54665;51.462;6.698;2023-04-29T08:34:40;11.43;80.70
67862;DHT22;54665;51.462;6.698;2023-04-29T08:37:06;11.80;80.06
67862;DHT22;54665;51.462;6.698;2023-04-29T08:39:31;12.00;79.02
67862;DHT22;54665;51.462;6.698;2023-04-29T08:41:57;11.77;79.49
67862;DHT22;54665;51.462;6.698;2023-04-29T08:44:27;11.90;79.23
67862;DHT22;54665;51.462;6.698;2023-04-29T08:46:54;11.66;80.03
67862;DHT22;54665;51.462;6.698;2023-04-29T08:49:20;11.60;79.87
67862;DHT22;54665;51.462;6.698;2023-04-29T08:51:50;11.55;80.17
67862;DHT22;54665;51.462;6.698;2023-04-29T08:54:18;11.65;79.90
67862;DHT22;54665;51.462;6.698;2023-04-29T08:56:45;11.49;80.39
67862;DHT22;54665;51.462;6.698;2023-04-29T08:59:13;11.60;79.80
67862;DHT22;54665;51.462;6.698;2023-04-29T09:01:39;11.55;79.75
67862;DHT22;54665;51.462;6.698;2023-04-29T09:07:09;11.94;79.05
67862;DHT22;54665;51.462;6.698;2023-04-29T09:09:38;12.30;78.30
67862;DHT22;54665;51.462;6.698;2023-04-29T09:12:04;12.05;78.33
67862;DHT22;54665;51.462;6.698;2023-04-29T09:14:30;12.05;78.74
67862;DHT22;54665;51.462;6.698;2023-04-29T09:16:58;12.30;77.98
67862;DHT22;54665;51.462;6.698;2023-04-29T09:19:32;12.35;77.85
67862;DHT22;54665;51.462;6.698;2023-04-29T09:21:59;12.28;78.00
67862;DHT22;54665;51.462;6.698;2023-04-29T09:24:26;12.28;78.72
67862;DHT22;54665;51.462;6.698;2023-04-29T09:26:52;11.98;78.73
67862;DHT22;54665;51.462;6.698;2023-04-29T09:29:17;11.89;78.95
67862;DHT22;54665;51.462;6.698;2023-04-29T09:31:44;12.27;78.22
67862;DHT22;54665;51.462;6.698;2023-04-29T09:34:10;12.37;77.38
67862;DHT22;54665;51.462;6.698;2023-04-29T09:36:37;12.39;76.55
67862;DHT22;54665;51.462;6.698;2023-04-29T09:39:06;12.59;77.50
67862;DHT22;54665;51.462;6.698;2023-04-29T09:44:09;12.82;76.30
67862;DHT22;54665;51.462;6.698;2023-04-29T09:46:35;13.12;76.35
67862;DHT22;54665;51.462;6.698;2023-04-29T09:49:02;13.19;75.09
67862;DHT22;54665;51.462;6.698;2023-04-29T09:51:29;12.85;75.99
67862;DHT22;54665;51.462;6.698;2023-04-29T09:53:58;12.88;75.86
67862;DHT22;54665;51.462;6.698;2023-04-29T09:56:23;12.92;75.65
67862;DHT22;54665;51.462;6.698;2023-04-29T09:58:53;13.03;75.59
67862;DHT22;54665;51.462;6.698;2023-04-29T10:01:20;12.93;75.55
67862;DHT22;54665;51.462;6.698;2023-04-29T10:03:47;12.79;75.79
67862;DHT22;54665;51.462;6.698;2023-04-29T10:06:15;12.83;76.09
67862;DHT22;54665;51.462;6.698;2023-04-29T10:08:41;12.78;77.09
67862;DHT22;54665;51.462;6.698;2023-04-29T10:11:09;13.13;75.89
67862;DHT22;54665;51.462;6.698;2023-04-29T10:13:37;13.03;75.80
67862;DHT22;54665;51.462;6.698;2023-04-29T10:18:48;13.23;75.58
67862;DHT22;54665;51.462;6.698;2023-04-29T10:21:17;13.48;73.46
67862;DHT22;54665;51.462;6.698;2023-04-29T10:23:46;13.09;74.62
67862;DHT22;54665;51.462;6.698;2023-04-29T10:26:13;12.89;75.16
67862;DHT22;54665;51.462;6.698;2023-04-29T10:28:41;13.10;74.88
67862;DHT22;54665;51.462;6.698;2023-04-29T10:31:09;13.21;74.82
67862;DHT22;54665;51.462;6.698;2023-04-29T10:33:36;13.23;74.14
67862;DHT22;54665;51.462;6.698;2023-04-29T10:36:02;13.54;74.19
67862;DHT22;54665;51.462;6.698;2023-04-29T10:38:43;13.72;73.62
67862;DHT22;54665;51.462;6.698;2023-04-29T10:41:19;14.22;71.64
67862;DHT22;54665;51.462;6.698;2023-04-29T10:43:46;13.95;71.60
67862;DHT22;54665;51.462;6.698;2023-04-29T10:48:42;14.29;69.78
67862;DHT22;54665;51.462;6.698;2023-04-29T10:51:07;14.08;70.42
67862;DHT22;54665;51.462;6.698;2023-04-29T10:53:33;14.25;69.93
67862;DHT22;54665;51.462;6.698;2023-04-29T10:56:08;14.21;70.36
67862;DHT22;54665;51.462;6.698;2023-04-29T10:58:45;14.69;70.16
67862;DHT22;54665;51.462;6.698;2023-04-29T11:01:15;14.60;69.26
67862;DHT22;54665;51.462;6.698;2023-04-29T11:03:56;14.44;70.09
67862;DHT22;54665;51.462;6.698;2023-04-29T11:06:46;14.76;68.39
67862;DHT22;54665;51.462;6.698;2023-04-29T11:09:15;15.24;68.08
67862;DHT22;54665;51.462;6.698;2023-04-29T11:11:47;15.04;68.51
67862;DHT22;54665;51.462;6.698;2023-04-29T11:14:14;15.04;68.06
67862;DHT22;54665;51.462;6.698;2023-04-29T11:16:48;15.17;68.22
67862;DHT22;54665;51.462;6.698;2023-04-29T11:19:16;15.20;67.45
67862;DHT22;54665;51.462;6.698;2023-04-29T11:21:43;15.62;67.58
67862;DHT22;54665;51.462;6.698;2023-04-29T11:24:09;15.30;67.06
67862;DHT22;54665;51.462;6.698;2023-04-29T11:26:36;15.78;66.22
67862;DHT22;54665;51.462;6.698;2023-04-29T11:29:04;15.70;65.59
67862;DHT22;54665;51.462;6.698;2023-04-29T11:31:30;16.03;65.45
67862;DHT22;54665;51.462;6.698;2023-04-29T11:33:57;16.36;64.03
67862;DHT22;54665;51.462;6.698;2023-04-29T11:36:23;15.83;65.39
67862;DHT22;54665;51.462;6.698;2023-04-29T11:38:48;16.10;66.13
67862;DHT22;54665;51.462;6.698;2023-04-29T11:41:14;15.99;65.02
67862;DHT22;54665;51.462;6.698;2023-04-29T11:43:40;16.31;64.15
67862;DHT22;54665;51.462;6.698;2023-04-29T11:46:12;16.85;62.56
67862;DHT22;54665;51.462;6.698;2023-04-29T11:48:45;16.74;62.90
67862;DHT22;54665;51.462;6.698;2023-04-29T11:51:11;16.60;63.77
67862;DHT22;54665;51.462;6.698;2023-04-29T11:53:37;17.15;63.65
67862;DHT22;54665;51.462;6.698;2023-04-29T11:56:03;17.25;61.40
67862;DHT22;54665;51.462;6.698;2023-04-29T11:58:29;17.69;60.87
67862;DHT22;54665;51.462;6.698;2023-04-29T12:00:57;18.38;58.57
67862;DHT22;54665;51.462;6.698;2023-04-29T12:03:23;18.35;59.05
67862;DHT22;54665;51.462;6.698;2023-04-29T12:05:55;18.35;56.61
67862;DHT22;54665;51.462;6.698;2023-04-29T12:08:26;17.70;57.66
67862;DHT22;54665;51.462;6.698;2023-04-29T12:10:54;17.57;60.95
67862;DHT22;54665;51.462;6.698;2023-04-29T12:13:19;16.51;62.38
67862;DHT22;54665;51.462;6.698;2023-04-29T12:15:48;15.73;63.54
67862;DHT22;54665;51.462;6.698;2023-04-29T12:18:16;15.69;63.46
67862;DHT22;54665;51.462;6.698;2023-04-29T12:20:42;15.21;65.46
67862;DHT22;54665;51.462;6.698;2023-04-29T12:23:11;15.17;65.29
67862;DHT22;54665;51.462;6.698;2023-04-29T12:25:37;15.21;65.29
67862;DHT22;54665;51.462;6.698;2023-04-29T12:28:03;14.85;66.70
67862;DHT22;54665;51.462;6.698;2023-04-29T12:30:29;14.77;66.66
67862;DHT22;54665;51.462;6.698;2023-04-29T12:32:54;14.83;66.42
67862;DHT22;54665;51.462;6.698;2023-04-29T12:35:20;14.76;67.09
67862;DHT22;54665;51.462;6.698;2023-04-29T12:37:49;14.73;66.37
67862;DHT22;54665;51.462;6.698;2023-04-29T12:40:16;15.08;66.26
67862;DHT22;54665;51.462;6.698;2023-04-29T12:42:42;15.15;66.36
67862;DHT22;54665;51.462;6.698;2023-04-29T12:45:31;15.41;64.92
67862;DHT22;54665;51.462;6.698;2023-04-29T12:47:57;15.58;64.22
67862;DHT22;54665;51.462;6.698;2023-04-29T12:52:57;16.13;64.17
67862;DHT22;54665;51.462;6.698;2023-04-29T12:55:23;15.83;64.41
67862;DHT22;54665;51.462;6.698;2023-04-29T12:57:48;15.70;64.69
67862;DHT22;54665;51.462;6.698;2023-04-29T13:00:13;15.66;64.75
67862;DHT22;54665;51.462;6.698;2023-04-29T13:02:39;15.49;65.04
67862;DHT22;54665;51.462;6.698;2023-04-29T13:05:05;15.52;64.73
67862;DHT22;54665;51.462;6.698;2023-04-29T13:07:30;15.59;65.33
67862;DHT22;54665;51.462;6.698;2023-04-29T13:09:55;15.76;65.10
67862;DHT22;54665;51.462;6.698;2023-04-29T13:12:21;15.96;64.81
67862;DHT22;54665;51.462;6.698;2023-04-29T13:14:46;16.02;63.79
67862;DHT22;54665;51.462;6.698;2023-04-29T13:17:12;16.07;62.01
67862;DHT22;54665;51.462;6.698;2023-04-29T13:19:37;15.72;62.09
67862;DHT22;54665;51.462;6.698;2023-04-29T13:22:02;15.92;62.80
67862;DHT22;54665;51.462;6.698;2023-04-29T13:24:28;15.81;61.71
67862;DHT22;54665;51.462;6.698;2023-04-29T13:26:54;15.96;62.99
67862;DHT22;54665;51.462;6.698;2023-04-29T13:29:19;15.96;62.69
67862;DHT22;54665;51.462;6.698;2023-04-29T13:31:45;16.57;62.00
67862;DHT22;54665;51.462;6.698;2023-04-29T13:34:10;16.54;60.47
67862;DHT22;54665;51.462;6.698;2023-04-29T13:36:35;16.46;61.56
67862;DHT22;54665;51.462;6.698;2023-04-29T13:39:01;16.64;61.15
67862;DHT22;54665;51.462;6.698;2023-04-29T13:41:26;16.84;59.86
67862;DHT22;54665;51.462;6.698;2023-04-29T13:43:52;16.53;60.98
67862;DHT22;54665;51.462;6.698;2023-04-29T13:46:17;16.71;59.68
67862;DHT22;54665;51.462;6.698;2023-04-29T13:48:42;16.54;58.99
67862;DHT22;54665;51.462;6.698;2023-04-29T13:51:08;16.87;59.90
67862;DHT22;54665;51.462;6.698;2023-04-29T13:53:33;16.78;58.22
67862;DHT22;54665;51.462;6.698;2023-04-29T13:55:58;16.71;59.51
67862;DHT22;54665;51.462;6.698;2023-04-29T13:58:24;16.65;58.18
67862;DHT22;54665;51.462;6.698;2023-04-29T14:00:49;16.92;58.27
67862;DHT22;54665;51.462;6.698;2023-04-29T14:03:15;17.02;57.84
67862;DHT22;54665;51.462;6.698;2023-04-29T14:05:42;17.04;59.00
67862;DHT22;54665;51.462;6.698;2023-04-29T14:08:08;17.02;59.58
67862;DHT22;54665;51.462;6.698;2023-04-29T14:10:33;16.85;60.91
67862;DHT22;54665;51.462;6.698;2023-04-29T14:12:59;16.81;60.04
67862;DHT22;54665;51.462;6.698;2023-04-29T14:15:24;16.23;62.10
67862;DHT22;54665;51.462;6.698;2023-04-29T14:17:50;15.73;63.50
67862;DHT22;54665;51.462;6.698;2023-04-29T14:20:15;15.76;62.66
67862;DHT22;54665;51.462;6.698;2023-04-29T14:22:41;15.82;62.95
67862;DHT22;54665;51.462;6.698;2023-04-29T14:25:06;15.78;63.18
67862;DHT22;54665;51.462;6.698;2023-04-29T14:27:32;15.93;63.33
67862;DHT22;54665;51.462;6.698;2023-04-29T14:29:59;15.76;63.25
67862;DHT22;54665;51.462;6.698;2023-04-29T14:32:25;15.83;62.41
67862;DHT22;54665;51.462;6.698;2023-04-29T14:34:51;15.76;62.41
67862;DHT22;54665;51.462;6.698;2023-04-29T14:37:16;15.99;62.68
67862;DHT22;54665;51.462;6.698;2023-04-29T14:39:41;15.76;61.43
67862;DHT22;54665;51.462;6.698;2023-04-29T14:42:07;16.16;61.23
67862;DHT22;54665;51.462;6.698;2023-04-29T14:44:32;16.74;61.16
67862;DHT22;54665;51.462;6.698;2023-04-29T14:46:57;16.58;60.05
67862;DHT22;54665;51.462;6.698;2023-04-29T14:49:23;16.69;59.76
67862;DHT22;54665;51.462;6.698;2023-04-29T14:51:48;17.23;57.18
67862;DHT22;54665;51.462;6.698;2023-04-29T14:54:14;17.59;57.63
67862;DHT22;54665;51.462;6.698;2023-04-29T14:56:40;17.90;57.22
67862;DHT22;54665;51.462;6.698;2023-04-29T14:59:05;18.02;55.03
67862;DHT22;54665;51.462;6.698;2023-04-29T15:01:33;17.14;56.82
67862;DHT22;54665;51.462;6.698;2023-04-29T15:03:58;17.56;56.60
67862;DHT22;54665;51.462;6.698;2023-04-29T15:06:24;17.57;57.75
67862;DHT22;54665;51.462;6.698;2023-04-29T15:08:52;17.97;56.56
67862;DHT22;54665;51.462;6.698;2023-04-29T15:11:17;17.49;58.39
67862;DHT22;54665;51.462;6.698;2023-04-29T15:13:43;17.29;58.10
67862;DHT22;54665;51.462;6.698;2023-04-29T15:16:08;17.19;58.57
67862;DHT22;54665;51.462;6.698;2023-04-29T15:18:34;17.29;58.58
67862;DHT22;54665;51.462;6.698;2023-04-29T15:20:59;17.26;58.90
67862;DHT22;54665;51.462;6.698;2023-04-29T15:23:25;16.68;58.97
67862;DHT22;54665;51.462;6.698;2023-04-29T15:25:50;17.11;59.17
67862;DHT22;54665;51.462;6.698;2023-04-29T15:28:17;16.91;59.23
67862;DHT22;54665;51.462;6.698;2023-04-29T15:30:42;16.91;59.04
67862;DHT22;54665;51.462;6.698;2023-04-29T15:33:08;16.81;58.58
67862;DHT22;54665;51.462;6.698;2023-04-29T15:35:33;17.46;58.06
67862;DHT22;54665;51.462;6.698;2023-04-29T15:37:59;17.76;56.91
67862;DHT22;54665;51.462;6.698;2023-04-29T15:40:24;17.59;58.29
67862;DHT22;54665;51.462;6.698;2023-04-29T15:42:50;17.42;58.31
67862;DHT22;54665;51.462;6.698;2023-04-29T15:45:15;17.32;57.80
67862;DHT22;54665;51.462;6.698;2023-04-29T15:47:41;17.33;59.13